createdAt,value
2023-04-19T00:03:40.316Z,12.62
2023-04-19T00:08:42.400Z,12.53
2023-04-19T00:13:43.775Z,12.48
2023-04-19T00:18:46.585Z,12.55
2023-04-19T00:23:48.004Z,12.66
2023-04-19T00:28:49.323Z,12.66
2023-04-19T00:33:50.989Z,12.55
2023-04-19T00:38:52.392Z,12.64
2023-04-19T00:43:53.986Z,12.61
2023-04-19T00:48:55.733Z,12.59
2023-04-19T00:53:57.758Z,12.58
2023-04-19T00:58:59.650Z,12.58
2023-04-19T01:04:02.231Z,12.53
2023-04-19T01:09:04.566Z,12.54
2023-04-19T01:14:05.859Z,12.44
2023-04-19T01:19:07.414Z,12.48
2023-04-19T01:24:08.768Z,12.47
2023-04-19T01:29:10.181Z,12.57
2023-04-19T01:34:11.463Z,12.56
2023-04-19T01:39:12.811Z,12.52
2023-04-19T01:44:14.361Z,12.35
2023-04-19T01:49:16.331Z,12.36
2023-04-19T01:54:17.850Z,12.32
2023-04-19T01:59:19.333Z,12.43
2023-04-19T02:04:22.052Z,12.42
2023-04-19T02:09:23.421Z,12.37
2023-04-19T02:14:24.717Z,12.18
2023-04-19T02:19:26.082Z,12.22
2023-04-19T02:24:27.378Z,12.15
2023-04-19T02:29:28.803Z,12.26
2023-04-19T02:34:31.141Z,12.16
2023-04-19T02:39:32.537Z,12.13
2023-04-19T02:44:33.846Z,12.11
2023-04-19T02:49:38.109Z,12.01
2023-04-19T02:54:39.417Z,12.06
2023-04-19T02:59:41.182Z,12.00
2023-04-19T03:04:43.361Z,11.83
2023-04-19T03:09:44.726Z,11.83
2023-04-19T03:14:46.187Z,11.89
2023-04-19T03:19:47.544Z,11.89
2023-04-19T03:24:48.918Z,11.87
2023-04-19T03:29:50.246Z,11.94
2023-04-19T03:34:51.619Z,11.96
2023-04-19T03:39:52.979Z,11.84
2023-04-19T03:44:54.396Z,11.84
2023-04-19T03:49:56.015Z,11.98
2023-04-19T03:54:57.547Z,11.96
2023-04-19T03:59:59.929Z,11.92
2023-04-19T04:05:01.322Z,12.00
2023-04-19T04:10:03.409Z,12.01
2023-04-19T04:15:05.381Z,11.95
2023-04-19T04:20:08.281Z,12.05
2023-04-19T04:25:10.162Z,12.03
2023-04-19T04:30:12.171Z,12.02
2023-04-19T04:35:13.618Z,12.05
2023-04-19T04:40:15.820Z,12.01
2023-04-19T04:45:18.296Z,12.02
2023-04-19T04:50:20.062Z,11.94
2023-04-19T04:55:21.527Z,11.89
2023-04-19T05:00:23.828Z,11.97
2023-04-19T05:05:25.432Z,11.91
2023-04-19T05:10:26.803Z,11.94
2023-04-19T05:15:28.172Z,11.98
2023-04-19T05:20:30.273Z,12.02
2023-04-19T05:25:31.932Z,12.01
2023-04-19T05:30:33.496Z,12.00
2023-04-19T05:35:34.933Z,11.99
2023-04-19T05:40:36.637Z,12.12
2023-04-19T05:45:38.100Z,12.19
2023-04-19T05:50:39.604Z,12.17
2023-04-19T05:55:41.167Z,12.15
2023-04-19T06:00:42.841Z,12.15
2023-04-19T06:05:44.290Z,12.19
2023-04-19T06:10:54.978Z,12.23
2023-04-19T06:15:59.762Z,12.35
2023-04-19T06:21:01.144Z,12.32
2023-04-19T06:26:02.560Z,12.38
2023-04-19T06:31:04.882Z,12.36
2023-04-19T06:36:06.717Z,12.38
2023-04-19T06:41:09.391Z,12.40
2023-04-19T06:46:11.449Z,12.31
2023-04-19T06:51:12.937Z,12.25
2023-04-19T06:56:14.394Z,12.36
2023-04-19T07:01:15.952Z,12.40
2023-04-19T07:06:17.414Z,12.23
2023-04-19T07:11:20.332Z,12.33
2023-04-19T07:16:22.843Z,12.41
2023-04-19T07:21:32.714Z,12.30
2023-04-19T07:26:34.646Z,12.50
2023-04-19T07:31:36.781Z,12.72
2023-04-19T07:36:39.012Z,12.74
2023-04-19T07:41:40.406Z,12.76
2023-04-19T07:46:44.973Z,12.96
2023-04-19T07:51:46.374Z,12.99
2023-04-19T07:56:47.765Z,13.10
2023-04-19T08:01:49.595Z,13.12
2023-04-19T08:06:52.563Z,13.23
2023-04-19T08:11:53.963Z,13.31
2023-04-19T08:17:22.160Z,13.53
2023-04-19T08:22:17.997Z,13.77
2023-04-19T08:27:20.203Z,13.83
2023-04-19T08:32:21.788Z,14.10
2023-04-19T08:37:23.180Z,14.29
2023-04-19T08:42:35.554Z,14.36
2023-04-19T08:52:54.847Z,14.86
2023-04-19T08:57:58.891Z,14.75
2023-04-19T09:03:00.570Z,15.09
2023-04-19T09:08:25.054Z,15.24
2023-04-19T09:13:27.912Z,15.64
2023-04-19T09:18:32.193Z,15.87
2023-04-19T09:23:46.760Z,16.23
2023-04-19T09:29:04.541Z,16.61
2023-04-19T09:34:14.307Z,16.52
2023-04-19T09:39:29.125Z,16.74
2023-04-19T09:45:01.773Z,17.01
2023-04-19T09:50:19.248Z,16.87
2023-04-19T09:55:27.754Z,17.36
2023-04-19T10:00:38.763Z,17.40
2023-04-19T10:05:47.001Z,17.61
2023-04-19T10:10:54.747Z,17.99
2023-04-19T10:16:01.835Z,18.35
2023-04-19T10:21:14.976Z,19.16
2023-04-19T10:26:16.441Z,22.33
2023-04-19T10:31:23.854Z,23.63
2023-04-19T10:36:27.385Z,23.01
2023-04-19T10:41:59.104Z,22.20
2023-04-19T10:47:00.663Z,22.51
2023-04-19T10:52:01.983Z,24.66
2023-04-19T10:57:11.116Z,27.05
2023-04-19T11:02:21.566Z,28.95
2023-04-19T11:07:24.667Z,29.65
2023-04-19T11:12:26.659Z,31.20
2023-04-19T11:17:32.494Z,31.38
2023-04-19T11:22:45.720Z,31.60
2023-04-19T11:27:53.581Z,32.49
2023-04-19T11:32:58.197Z,33.76
2023-04-19T11:37:59.728Z,34.07
2023-04-19T11:43:03.166Z,34.43
2023-04-19T11:48:05.602Z,33.95
2023-04-19T11:53:22.353Z,34.37
2023-04-19T11:58:32.006Z,33.47
2023-04-19T12:03:54.508Z,30.51
2023-04-19T12:08:57.230Z,27.35
2023-04-19T12:14:09.083Z,25.98
2023-04-19T12:19:17.382Z,25.18
2023-04-19T12:24:19.229Z,24.76
2023-04-19T12:29:20.639Z,24.50
2023-04-19T12:34:21.880Z,23.82
2023-04-19T12:39:23.564Z,23.45
2023-04-19T12:44:24.962Z,23.43
2023-04-19T12:49:26.351Z,23.20
2023-04-19T12:54:27.640Z,22.62
2023-04-19T12:59:29.378Z,22.52
2023-04-19T13:04:31.112Z,22.07
2023-04-19T13:09:32.728Z,21.77
2023-04-19T13:14:34.609Z,21.80
2023-04-19T13:19:36.048Z,21.92
2023-04-19T13:24:37.379Z,21.69
2023-04-19T13:29:38.921Z,21.09
2023-04-19T13:34:40.547Z,20.63
2023-04-19T13:39:42.776Z,20.36
2023-04-19T13:44:44.182Z,20.29
2023-04-19T13:49:51.856Z,20.03
2023-04-19T13:54:53.243Z,19.87
2023-04-19T13:59:54.608Z,19.55
2023-04-19T14:04:59.161Z,19.58
2023-04-19T14:10:00.674Z,19.19
2023-04-19T14:15:02.314Z,18.68
2023-04-19T14:20:06.855Z,18.86
2023-04-19T14:25:08.970Z,18.43
2023-04-19T14:30:10.584Z,18.54
2023-04-19T14:35:12.013Z,18.31
2023-04-19T14:40:13.647Z,18.01
2023-04-19T14:45:15.170Z,17.88
2023-04-19T14:50:16.660Z,17.91
2023-04-19T14:55:18.048Z,17.83
2023-04-19T15:00:19.665Z,17.83
2023-04-19T15:05:23.840Z,17.59
2023-04-19T15:10:25.461Z,17.58
2023-04-19T15:15:27.034Z,17.56
2023-04-19T15:20:28.456Z,17.60
2023-04-19T15:25:30.114Z,17.44
2023-04-19T15:30:31.560Z,17.35
2023-04-19T15:35:33.161Z,16.88
2023-04-19T15:40:38.353Z,17.06
2023-04-19T15:45:39.619Z,16.80
2023-04-19T15:50:43.543Z,16.75
2023-04-19T15:55:47.834Z,16.51
2023-04-19T16:00:49.488Z,16.37
2023-04-19T16:05:51.620Z,16.24
2023-04-19T16:10:53.053Z,16.11
2023-04-19T16:15:54.480Z,16.11
2023-04-19T16:20:55.900Z,16.07
2023-04-19T16:25:57.428Z,16.00
2023-04-19T16:30:58.831Z,15.85
2023-04-19T16:36:00.128Z,15.76
2023-04-19T16:41:04.431Z,15.59
2023-04-19T16:46:07.159Z,15.48
2023-04-19T16:51:08.589Z,15.49
2023-04-19T16:56:09.902Z,15.49
2023-04-19T17:01:11.296Z,15.47
2023-04-19T17:06:12.634Z,15.22
2023-04-19T17:11:13.944Z,15.23
2023-04-19T17:16:15.411Z,15.21
2023-04-19T17:21:16.870Z,15.10
2023-04-19T17:26:18.330Z,14.81
2023-04-19T17:31:19.791Z,14.64
2023-04-19T17:36:21.480Z,14.59
2023-04-19T17:41:22.780Z,14.53
2023-04-19T17:46:24.174Z,14.44
2023-04-19T17:51:25.558Z,14.24
2023-04-19T17:56:26.936Z,14.25
2023-04-19T18:01:30.057Z,14.10
2023-04-19T18:06:31.746Z,14.11
2023-04-19T18:11:33.256Z,14.00
2023-04-19T18:16:35.415Z,14.01
2023-04-19T18:21:36.948Z,13.90
2023-04-19T18:26:40.826Z,13.86
2023-04-19T18:31:42.513Z,13.73
2023-04-19T18:36:43.922Z,13.55
2023-04-19T18:41:45.468Z,13.53
2023-04-19T18:46:46.776Z,13.40
2023-04-19T18:51:48.195Z,13.39
2023-04-19T18:57:21.135Z,13.42
2023-04-19T19:02:11.280Z,13.33
2023-04-19T19:07:33.349Z,13.14
2023-04-19T19:12:34.192Z,12.95
2023-04-19T19:17:35.741Z,12.76
2023-04-19T19:22:37.254Z,12.69
2023-04-19T19:27:39.053Z,12.71
2023-04-19T19:32:40.683Z,12.62
2023-04-19T19:37:42.051Z,12.43
2023-04-19T19:42:43.386Z,12.34
2023-04-19T19:47:46.062Z,12.37
2023-04-19T19:52:49.824Z,12.27
2023-04-19T20:02:56.624Z,12.14
2023-04-19T20:08:10.403Z,12.16
2023-04-19T20:13:13.612Z,12.12
2023-04-19T20:18:15.166Z,12.12
2023-04-19T20:23:19.051Z,11.93
2023-04-19T20:28:20.380Z,11.91
2023-04-19T20:33:22.381Z,11.97
2023-04-19T20:38:24.371Z,11.90
2023-04-19T20:43:26.004Z,11.82
2023-04-19T20:48:27.343Z,11.79
2023-04-19T20:53:28.896Z,11.75
2023-04-19T20:58:32.089Z,11.81
2023-04-19T21:03:33.951Z,11.60
2023-04-19T21:08:35.960Z,11.66
2023-04-19T21:13:37.234Z,11.63
2023-04-19T21:18:38.567Z,11.57
2023-04-19T21:23:40.161Z,11.49
2023-04-19T21:28:41.492Z,11.48
2023-04-19T21:33:42.854Z,11.34
2023-04-19T21:38:44.265Z,11.40
2023-04-19T21:43:45.620Z,11.37
2023-04-19T21:48:46.963Z,11.32
2023-04-19T21:53:48.337Z,11.23
2023-04-19T21:58:49.702Z,11.08
2023-04-19T22:03:51.243Z,11.06
2023-04-19T22:08:53.469Z,11.10
2023-04-19T22:13:55.514Z,10.99
2023-04-19T22:18:57.799Z,10.97
2023-04-19T22:23:59.121Z,10.92
2023-04-19T22:29:00.440Z,10.89
2023-04-19T22:34:01.832Z,10.87
2023-04-19T22:39:04.468Z,10.83
2023-04-19T22:44:05.788Z,10.68
2023-04-19T22:49:08.445Z,10.56
2023-04-19T22:54:09.760Z,10.63
2023-04-19T22:59:11.220Z,10.48
2023-04-19T23:04:14.789Z,10.55
2023-04-19T23:09:18.017Z,10.36
2023-04-19T23:14:19.728Z,10.28
2023-04-19T23:19:22.707Z,10.29
2023-04-19T23:24:24.287Z,9.95
2023-04-19T23:29:25.632Z,10.17
2023-04-19T23:34:27.039Z,10.15
2023-04-19T23:39:28.330Z,10.08
2023-04-19T23:44:30.102Z,10.03
2023-04-19T23:49:31.844Z,9.86
2023-04-19T23:54:33.435Z,9.95
2023-04-19T23:59:36.478Z,9.86
